createdAt,value
2019-03-03T00:03:39.863Z,6.30
2019-03-03T00:08:45.215Z,6.10
2019-03-03T00:13:50.587Z,5.80
2019-03-03T00:18:55.948Z,5.40
2019-03-03T00:24:02.646Z,5.60
2019-03-03T00:29:08.003Z,6.00
2019-03-03T00:34:13.400Z,6.60
2019-03-03T00:39:20.452Z,6.40
2019-03-03T00:44:30.211Z,6.60
2019-03-03T00:49:39.953Z,6.70
2019-03-03T00:54:59.323Z,6.60
2019-03-03T01:00:09.468Z,6.20
2019-03-03T01:05:16.748Z,6.70
2019-03-03T01:10:26.816Z,6.40
2019-03-03T01:15:39.834Z,6.60
2019-03-03T01:21:01.866Z,7.10
2019-03-03T01:26:07.358Z,7.10
2019-03-03T01:31:12.850Z,7.30
2019-03-03T01:36:18.190Z,6.80
2019-03-03T01:41:23.618Z,7.30
2019-03-03T01:46:29.046Z,7.50
2019-03-03T01:51:34.474Z,7.30
2019-03-03T01:56:39.828Z,6.40
2019-03-03T02:01:45.323Z,6.10
2019-03-03T02:06:50.655Z,6.30
2019-03-03T02:11:56.270Z,6.40
2019-03-03T02:17:01.626Z,6.10
2019-03-03T02:22:07.228Z,6.20
2019-03-03T02:27:12.710Z,5.80
2019-03-03T02:32:18.129Z,6.00
2019-03-03T02:37:23.553Z,5.70
2019-03-03T02:42:28.972Z,5.90
2019-03-03T02:47:34.341Z,5.70
2019-03-03T02:52:39.844Z,6.20
2019-03-03T02:57:45.392Z,6.40
2019-03-03T03:02:52.172Z,7.10
2019-03-03T03:08:01.976Z,6.70
2019-03-03T03:13:21.177Z,6.80
2019-03-03T03:18:34.143Z,6.80
2019-03-03T03:23:41.282Z,7.10
2019-03-03T03:29:04.453Z,7.30
2019-03-03T03:34:14.409Z,7.40
2019-03-03T03:39:21.468Z,7.40
2019-03-03T03:44:28.539Z,7.50
2019-03-03T03:49:35.530Z,7.60
2019-03-03T03:54:48.826Z,7.40
2019-03-03T04:00:02.168Z,7.40
2019-03-03T04:05:10.554Z,7.50
2019-03-03T04:10:18.587Z,7.50
2019-03-03T04:15:32.248Z,7.70
2019-03-03T04:20:55.350Z,7.80
2019-03-03T04:26:11.436Z,8.00
2019-03-03T04:31:18.500Z,7.70
2019-03-03T04:36:25.483Z,8.00
2019-03-03T04:41:35.131Z,7.30
2019-03-03T04:46:42.132Z,7.10
2019-03-03T04:51:52.016Z,7.10
2019-03-03T04:57:01.831Z,7.00
2019-03-03T05:02:14.979Z,7.30
2019-03-03T05:07:31.240Z,6.60
2019-03-03T05:12:53.120Z,6.20
2019-03-03T05:18:00.271Z,6.10
2019-03-03T05:23:07.081Z,6.40
2019-03-03T05:28:12.596Z,6.60
2019-03-03T05:33:17.957Z,7.00
2019-03-03T05:38:23.388Z,7.50
2019-03-03T05:43:28.851Z,7.40
2019-03-03T05:48:34.567Z,7.70
2019-03-03T05:53:40.703Z,8.00
2019-03-03T05:58:46.140Z,7.80
2019-03-03T06:03:51.582Z,8.10
2019-03-03T06:08:57.771Z,8.10
2019-03-03T06:14:03.511Z,8.10
2019-03-03T06:19:08.995Z,8.00
2019-03-03T06:24:15.638Z,7.90
2019-03-03T06:29:21.085Z,8.00
2019-03-03T06:34:26.499Z,8.50
2019-03-03T06:39:32.123Z,8.90
2019-03-03T06:44:37.651Z,8.90
2019-03-03T06:49:43.097Z,8.90
2019-03-03T06:54:48.512Z,9.30
2019-03-03T06:59:53.851Z,9.60
2019-03-03T07:04:59.178Z,8.60
2019-03-03T07:10:06.430Z,8.50
2019-03-03T07:15:14.172Z,8.30
2019-03-03T07:20:19.719Z,9.00
2019-03-03T07:25:25.288Z,9.30
2019-03-03T07:30:30.726Z,9.50
2019-03-03T07:35:36.173Z,11.10
2019-03-03T07:40:42.095Z,10.50
2019-03-03T07:45:48.528Z,9.90
2019-03-03T07:50:54.046Z,10.50
2019-03-03T07:55:59.493Z,10.60
2019-03-03T08:01:04.979Z,10.00
2019-03-03T08:06:10.403Z,9.70
2019-03-03T08:11:15.886Z,9.40
2019-03-03T08:16:21.307Z,9.40
2019-03-03T08:21:27.792Z,9.70
2019-03-03T08:26:33.284Z,10.00
2019-03-03T08:31:38.708Z,10.60
2019-03-03T08:36:45.203Z,10.50
2019-03-03T08:41:52.359Z,10.90
2019-03-03T08:46:59.737Z,11.40
2019-03-03T08:52:09.963Z,11.60
2019-03-03T08:57:16.970Z,11.10
2019-03-03T09:02:35.993Z,10.80
2019-03-03T09:07:47.353Z,10.80
2019-03-03T09:12:54.432Z,10.80
2019-03-03T09:18:17.941Z,10.20
2019-03-03T09:23:25.007Z,10.50
2019-03-03T09:28:31.994Z,10.70
2019-03-03T09:33:42.229Z,10.60
2019-03-03T09:39:05.620Z,10.80
2019-03-03T09:44:32.042Z,10.30
2019-03-03T09:49:55.730Z,9.60
2019-03-03T09:55:11.923Z,9.60
2019-03-03T10:00:21.958Z,10.30
2019-03-03T10:05:34.827Z,10.20
2019-03-03T10:10:54.303Z,9.80
2019-03-03T10:16:07.279Z,9.10
2019-03-03T10:21:26.599Z,9.90
2019-03-03T10:26:36.658Z,10.80
2019-03-03T10:31:59.840Z,10.90
2019-03-03T10:37:09.942Z,10.90
2019-03-03T10:42:20.004Z,9.80
2019-03-03T10:47:32.976Z,9.60
2019-03-03T10:52:52.309Z,9.00
2019-03-03T10:58:16.923Z,8.90
2019-03-03T11:03:38.815Z,10.00
2019-03-03T11:08:45.888Z,9.90
2019-03-03T11:14:01.806Z,10.10
2019-03-03T11:19:08.980Z,9.90
2019-03-03T11:24:32.436Z,10.60
2019-03-03T11:29:55.026Z,11.00
2019-03-03T11:35:02.103Z,11.10
2019-03-03T11:40:12.159Z,10.70
2019-03-03T11:45:34.283Z,10.90
2019-03-03T11:50:43.746Z,11.10
2019-03-03T11:55:50.848Z,11.20
2019-03-03T12:01:00.379Z,11.20
2019-03-03T12:06:13.252Z,11.20
2019-03-03T12:11:22.964Z,12.00
2019-03-03T12:16:48.464Z,12.60
2019-03-03T12:21:56.575Z,12.60
2019-03-03T12:27:03.551Z,12.50
2019-03-03T12:32:19.198Z,12.60
2019-03-03T12:37:28.947Z,12.20
2019-03-03T12:42:38.782Z,11.70
2019-03-03T12:48:02.251Z,11.70
2019-03-03T12:53:21.708Z,11.90
2019-03-03T12:58:40.784Z,12.30
2019-03-03T13:03:50.578Z,12.70
2019-03-03T13:09:00.772Z,13.00
2019-03-03T13:14:24.655Z,12.90
2019-03-03T13:19:32.004Z,13.00
2019-03-03T13:24:40.563Z,13.30
2019-03-03T13:30:04.614Z,12.70
2019-03-03T13:35:11.862Z,12.80
2019-03-03T13:40:24.947Z,13.10
2019-03-03T13:45:32.470Z,13.20
2019-03-03T13:50:38.027Z,13.00
2019-03-03T13:55:43.451Z,13.30
2019-03-03T14:00:48.954Z,13.50
2019-03-03T14:05:54.458Z,14.00
2019-03-03T14:10:59.874Z,13.80
2019-03-03T14:16:05.319Z,13.90
2019-03-03T14:21:10.655Z,14.00
2019-03-03T14:26:16.985Z,13.50
2019-03-03T14:31:22.492Z,13.30
2019-03-03T14:36:27.996Z,13.50
2019-03-03T14:41:33.500Z,13.90
2019-03-03T14:46:41.689Z,13.90
2019-03-03T14:51:47.054Z,13.60
2019-03-03T14:56:52.448Z,13.40
2019-03-03T15:01:57.871Z,13.40
2019-03-03T15:07:03.314Z,13.60
2019-03-03T15:12:08.807Z,14.30
2019-03-03T15:17:14.564Z,13.60
2019-03-03T15:22:20.129Z,13.30
2019-03-03T15:27:25.464Z,13.20
2019-03-03T15:32:30.885Z,13.20
2019-03-03T15:37:38.352Z,13.30
2019-03-03T15:42:44.398Z,13.20
2019-03-03T15:47:49.814Z,13.80
2019-03-03T15:52:55.225Z,13.10
2019-03-03T15:58:00.638Z,12.90
2019-03-03T16:03:06.419Z,12.70
2019-03-03T16:08:11.835Z,12.70
2019-03-03T16:13:17.242Z,12.80
2019-03-03T16:18:23.470Z,12.80
2019-03-03T16:23:28.870Z,12.60
2019-03-03T16:28:34.264Z,12.80
2019-03-03T16:33:39.675Z,12.70
2019-03-03T16:38:45.084Z,12.60
2019-03-03T16:43:50.638Z,12.60
2019-03-03T16:48:56.070Z,12.60
2019-03-03T16:54:02.372Z,12.70
2019-03-03T16:59:08.132Z,12.60
2019-03-03T17:04:13.541Z,12.70
2019-03-03T17:09:18.892Z,12.70
2019-03-03T17:14:24.382Z,12.20
2019-03-03T17:19:29.856Z,11.90
2019-03-03T17:24:35.421Z,11.80
2019-03-03T17:29:40.785Z,11.70
2019-03-03T17:34:46.199Z,12.10
2019-03-03T17:39:51.544Z,12.20
2019-03-03T17:44:57.553Z,12.10
2019-03-03T17:50:03.441Z,11.70
2019-03-03T17:55:10.400Z,11.60
2019-03-03T18:00:25.247Z,11.50
2019-03-03T18:05:30.810Z,11.80
2019-03-03T18:10:36.344Z,11.80
2019-03-03T18:15:41.760Z,11.90
2019-03-03T18:20:47.247Z,12.30
2019-03-03T18:25:52.660Z,12.20
2019-03-03T18:30:58.031Z,11.90
2019-03-03T18:36:03.446Z,11.90
2019-03-03T18:41:08.858Z,11.90
2019-03-03T18:46:15.347Z,11.90
2019-03-03T18:51:20.754Z,11.60
2019-03-03T18:56:26.100Z,11.70
2019-03-03T19:01:31.455Z,11.40
2019-03-03T19:06:36.916Z,11.40
2019-03-03T19:11:42.388Z,11.90
2019-03-03T19:16:47.816Z,11.80
2019-03-03T19:21:53.227Z,11.80
2019-03-03T19:26:58.659Z,11.70
2019-03-03T19:32:04.088Z,11.80
2019-03-03T19:37:09.746Z,12.00
2019-03-03T19:42:15.374Z,12.30
2019-03-03T19:47:20.932Z,12.30
2019-03-03T19:52:26.501Z,12.00
2019-03-03T19:57:33.037Z,11.90
2019-03-03T20:02:38.531Z,11.70
2019-03-03T20:07:44.421Z,11.70
2019-03-03T20:12:49.961Z,11.50
2019-03-03T20:17:55.382Z,11.50
2019-03-03T20:23:02.170Z,11.50
2019-03-03T20:28:08.906Z,11.40
2019-03-03T20:33:14.460Z,11.40
2019-03-03T20:38:19.865Z,11.30
2019-03-03T20:43:37.156Z,11.10
2019-03-03T20:48:42.612Z,10.90
2019-03-03T20:53:48.028Z,10.70
2019-03-03T20:58:54.111Z,10.60
2019-03-03T21:03:59.614Z,10.80
2019-03-03T21:09:06.712Z,10.90
2019-03-03T21:14:13.671Z,10.90
2019-03-03T21:19:19.161Z,11.40
2019-03-03T21:24:24.661Z,11.50
2019-03-03T21:29:30.803Z,11.50
2019-03-03T21:34:36.212Z,11.40
2019-03-03T21:39:41.556Z,11.40
2019-03-03T21:44:47.048Z,11.60
2019-03-03T21:49:52.473Z,11.80
2019-03-03T21:54:57.945Z,11.60
2019-03-03T22:00:25.484Z,11.80
2019-03-03T22:05:30.988Z,11.80
2019-03-03T22:10:36.415Z,11.80
2019-03-03T22:15:41.980Z,11.80
2019-03-03T22:20:47.430Z,11.90
2019-03-03T22:25:52.914Z,11.90
2019-03-03T22:30:58.305Z,11.90
2019-03-03T22:36:05.228Z,11.70
2019-03-03T22:41:11.699Z,11.80
2019-03-03T22:46:17.051Z,11.60
2019-03-03T22:51:22.390Z,11.50
2019-03-03T22:56:27.731Z,11.60
2019-03-03T23:01:33.706Z,11.50
2019-03-03T23:06:42.219Z,11.60
2019-03-03T23:11:50.643Z,11.60
2019-03-03T23:17:10.995Z,11.50
2019-03-03T23:22:25.386Z,11.50
2019-03-03T23:27:30.761Z,11.50
2019-03-03T23:32:36.285Z,11.50
2019-03-03T23:37:41.613Z,11.40
2019-03-03T23:42:47.011Z,11.60
2019-03-03T23:47:52.360Z,11.70
2019-03-03T23:52:57.778Z,11.70
2019-03-03T23:58:03.205Z,11.70
